Time;durP1;ratioP1;P1;durP2;ratioP2;P2;SDS_P1;SDS_P2;PMS_P1;PMS_P2;Temp;Humidity;BMP_temperature;BMP_pressure;BME280_temperature;BME280_humidity;BME280_pressure;Samples;Min_cycle;Max_cycle;Signal;HPM_P1;HPM_P2
2022/09/25 00:00:42;;;;;;;16.48;6.00;;;;;;;;;;5085000;28;20117;-76
2022/09/25 00:03:08;;;;;;;17.45;5.45;;;;;;;;;;5070164;28;20041;-77
2022/09/25 00:05:35;;;;;;;14.50;5.50;;;;;;;;;;5082968;28;20049;-75
2022/09/25 00:08:02;;;;;;;11.38;4.57;;;;;;;;;;5089240;28;20131;-76
2022/09/25 00:10:28;;;;;;;;;;;;;;;;;;5110175;28;20044;-76
2022/09/25 00:12:54;;;;;;;15.93;6.03;;;;;;;;;;5100467;28;20241;-76
2022/09/25 00:15:20;;;;;;;12.93;5.00;;;;;;;;;;5059326;28;20543;-76
2022/09/25 00:17:47;;;;;;;16.52;6.05;;;;;;;;;;5070289;28;20162;-72
2022/09/25 00:20:15;;;;;;;13.13;5.05;;;;;;;;;;5068998;28;20040;-76
2022/09/25 00:22:41;;;;;;;15.63;5.80;;;;;;;;;;5080439;28;20137;-76
2022/09/25 00:25:09;;;;;;;12.80;5.35;;;;;;;;;;5070600;28;20631;-76
2022/09/25 00:27:35;;;;;;;17.55;5.65;;;;;;;;;;5069914;28;20631;-76
2022/09/25 00:30:01;;;;;;;16.48;5.53;;;;;;;;;;5051271;28;20420;-76
2022/09/25 00:32:27;;;;;;;16.27;5.68;;;;;;;;;;5053938;28;20158;-75
2022/09/25 00:34:54;;;;;;;13.00;5.07;;;;;;;;;;5055901;28;20049;-76
2022/09/25 00:37:20;;;;;;;15.98;5.85;;;;;;;;;;5074369;28;20074;-76
2022/09/25 00:39:47;;;;;;;12.23;5.40;;;;;;;;;;5076563;28;20045;-76
2022/09/25 00:42:13;;;;;;;17.40;5.50;;;;;;;;;;5083294;28;20092;-75
2022/09/25 00:44:55;;;;;;;15.13;5.90;;;;;;;;;;5080343;28;20127;-76
2022/09/25 00:47:27;;;;;;;16.05;5.72;;;;;;;;;;5081239;28;20044;-76
2022/09/25 00:49:54;;;;;;;17.73;6.35;;;;;;;;;;5068656;28;20088;-76
2022/09/25 00:52:22;;;;;;;16.60;6.53;;;;;;;;;;5066441;28;20141;-71
2022/09/25 00:54:53;;;;;;;13.65;6.20;;;;;;;;;;5074195;28;20048;-75
2022/09/25 00:57:21;;;;;;;13.65;5.57;;;;;;;;;;5069703;28;20044;-70
2022/09/25 00:59:51;;;;;;;15.10;6.25;;;;;;;;;;5086833;28;20507;-73
2022/09/25 01:02:24;;;;;;;18.80;5.80;;;;;;;;;;5084877;28;20041;-75
2022/09/25 01:04:50;;;;;;;18.88;6.13;;;;;;;;;;5073709;28;20361;-76
2022/09/25 01:07:17;;;;;;;17.77;6.18;;;;;;;;;;5089311;28;20171;-76
2022/09/25 01:09:44;;;;;;;16.50;5.80;;;;;;;;;;5078402;28;20083;-76
2022/09/25 01:12:10;;;;;;;14.93;5.93;;;;;;;;;;5071294;28;20044;-73
2022/09/25 01:14:36;;;;;;;15.30;6.68;;;;;;;;;;5073483;28;20119;-75
2022/09/25 01:17:17;;;;;;;21.45;7.63;;;;;;;;;;5079940;28;20130;-76
2022/09/25 01:20:02;;;;;;;19.38;8.30;;;;;;;;;;5089853;28;20148;-76
2022/09/25 01:22:47;;;;;;;19.60;8.63;;;;;;;;;;5088516;28;20048;-75
2022/09/25 01:25:22;;;;;;;20.90;8.80;;;;;;;;;;5076393;28;20059;-74
2022/09/25 01:28:00;;;;;;;23.83;11.18;;;;;;;;;;5076158;28;20060;-75
2022/09/25 01:30:28;;;;;;;23.70;9.15;;;;;;;;;;5102492;28;20090;-75
2022/09/25 01:32:54;;;;;;;22.67;9.73;;;;;;;;;;5086418;28;20044;-76
2022/09/25 01:35:20;;;;;;;22.45;9.20;;;;;;;;;;5072947;28;20051;-76
2022/09/25 01:37:48;;;;;;;20.20;8.70;;;;;;;;;;5076049;28;20140;-77
2022/09/25 01:40:35;;;;;;;19.80;9.70;;;;;;;;;;5071538;28;20103;-75
2022/09/25 01:43:06;;;;;;;21.73;9.27;;;;;;;;;;5070832;28;20464;-76
2022/09/25 01:46:00;;;;;;;20.92;9.85;;;;;;;;;;5071247;28;20052;-77
2022/09/25 01:48:27;;;;;;;16.67;8.43;;;;;;;;;;5038275;28;20052;-71
2022/09/25 01:51:05;;;;;;;17.35;8.65;;;;;;;;;;5054072;28;20121;-77
2022/09/25 01:53:33;;;;;;;19.85;9.98;;;;;;;;;;5087434;28;20456;-76
2022/09/25 01:56:05;;;;;;;19.63;8.82;;;;;;;;;;5074622;28;20067;-76
2022/09/25 01:58:34;;;;;;;19.13;8.55;;;;;;;;;;5064171;28;20048;-75
2022/09/25 02:01:11;;;;;;;15.73;8.63;;;;;;;;;;5079768;28;20040;-76
2022/09/25 02:03:59;;;;;;;15.32;8.40;;;;;;;;;;5082753;28;20094;-76
2022/09/25 02:06:25;;;;;;;21.27;8.52;;;;;;;;;;5071340;28;20052;-76
2022/09/25 02:08:52;;;;;;;;;;;;;;;;;;5061442;28;20045;-76
2022/09/25 02:11:19;;;;;;;19.08;8.38;;;;;;;;;;5084640;28;19920;-74
2022/09/25 02:13:45;;;;;;;;;;;;;;;;;;5071994;28;20136;-76
2022/09/25 02:16:16;;;;;;;15.48;7.30;;;;;;;;;;5089983;28;20023;-76
2022/09/25 02:21:42;;;;;;;18.02;7.95;;;;;;;;;;5072878;28;20063;-75
2022/09/25 02:24:24;;;;;;;14.98;7.10;;;;;;;;;;5089044;28;20464;-76
2022/09/25 02:26:50;;;;;;;17.02;6.78;;;;;;;;;;5073377;28;20136;-76
2022/09/25 02:29:17;;;;;;;16.35;7.00;;;;;;;;;;5073979;28;20044;-74
2022/09/25 02:31:43;;;;;;;;;;;;;;;;;;5065130;28;20059;-74
2022/09/25 02:34:10;;;;;;;18.83;6.47;;;;;;;;;;5085384;28;19920;-76
2022/09/25 02:36:36;;;;;;;16.48;6.10;;;;;;;;;;5072406;28;20131;-76
2022/09/25 02:39:03;;;;;;;20.52;6.22;;;;;;;;;;5070521;28;20570;-74
2022/09/25 02:41:32;;;;;;;16.92;5.93;;;;;;;;;;5078504;28;20492;-75
2022/09/25 02:43:58;;;;;;;16.50;5.95;;;;;;;;;;5070676;28;20040;-76
2022/09/25 02:46:32;;;;;;;15.32;6.22;;;;;;;;;;5052746;28;20048;-77
2022/09/25 02:49:24;;;;;;;16.10;5.85;;;;;;;;;;5073271;28;20079;-76
2022/09/25 02:52:10;;;;;;;14.23;6.15;;;;;;;;;;5068186;28;20069;-76
2022/09/25 02:54:37;;;;;;;16.13;5.57;;;;;;;;;;5085541;28;20048;-74
2022/09/25 02:57:12;;;;;;;14.65;5.10;;;;;;;;;;5081391;28;20126;-76
2022/09/25 02:59:41;;;;;;;16.88;6.15;;;;;;;;;;5069691;28;20055;-75
2022/09/25 03:02:08;;;;;;;15.70;5.85;;;;;;;;;;5071692;28;20461;-75
2022/09/25 03:04:36;;;;;;;17.02;5.60;;;;;;;;;;5070013;28;20106;-72
2022/09/25 03:07:02;;;;;;;20.75;5.50;;;;;;;;;;5069774;28;20045;-76
2022/09/25 03:09:28;;;;;;;;;;;;;;;;;;5070583;28;20420;-75
2022/09/25 03:11:56;;;;;;;14.00;4.90;;;;;;;;;;5075324;28;20004;-75
2022/09/25 03:14:22;;;;;;;13.90;4.88;;;;;;;;;;5070744;28;20211;-75
2022/09/25 03:16:48;;;;;;;16.05;4.82;;;;;;;;;;5067415;28;20044;-75
2022/09/25 03:19:15;;;;;;;15.95;4.97;;;;;;;;;;5068331;28;20128;-76
2022/09/25 03:21:41;;;;;;;16.05;5.25;;;;;;;;;;5070236;28;20109;-75
2022/09/25 03:24:07;;;;;;;18.63;5.53;;;;;;;;;;5079644;28;20117;-77
2022/09/25 03:26:33;;;;;;;14.73;5.15;;;;;;;;;;5069693;28;20063;-76
2022/09/25 03:29:03;;;;;;;12.32;4.95;;;;;;;;;;5069050;28;20131;-76
2022/09/25 03:31:29;;;;;;;15.52;5.20;;;;;;;;;;5079380;28;20048;-76
2022/09/25 03:33:56;;;;;;;15.77;5.00;;;;;;;;;;5074430;28;20036;-76
2022/09/25 03:36:23;;;;;;;16.40;4.82;;;;;;;;;;5088457;28;20079;-76
2022/09/25 03:38:51;;;;;;;13.95;4.88;;;;;;;;;;5082707;28;20056;-74
2022/09/25 03:41:20;;;;;;;16.80;4.80;;;;;;;;;;5069592;28;20075;-76
2022/09/25 03:43:47;;;;;;;13.32;4.97;;;;;;;;;;5072811;28;20067;-76
2022/09/25 03:46:14;;;;;;;16.83;4.95;;;;;;;;;;5080127;28;20083;-78
2022/09/25 03:48:41;;;;;;;14.20;4.85;;;;;;;;;;5070779;28;20040;-72
2022/09/25 03:51:10;;;;;;;14.55;4.65;;;;;;;;;;5058468;28;20153;-76
2022/09/25 03:53:36;;;;;;;15.25;4.28;;;;;;;;;;5070161;28;20479;-75
2022/09/25 03:56:04;;;;;;;11.80;4.68;;;;;;;;;;5078680;28;20162;-75
2022/09/25 03:58:30;;;;;;;12.43;4.75;;;;;;;;;;5089695;28;20433;-76
2022/09/25 04:00:56;;;;;;;10.55;4.28;;;;;;;;;;5078299;28;20097;-76
2022/09/25 04:03:29;;;;;;;13.80;4.78;;;;;;;;;;5055824;28;20127;-76
2022/09/25 04:05:56;;;;;;;16.00;5.18;;;;;;;;;;5070172;28;20050;-72
2022/09/25 04:08:25;;;;;;;12.15;4.18;;;;;;;;;;5072083;28;20493;-76
2022/09/25 04:10:51;;;;;;;16.33;4.85;;;;;;;;;;5068500;28;20056;-76
2022/09/25 04:13:19;;;;;;;15.15;4.47;;;;;;;;;;5068645;28;20097;-76
2022/09/25 04:15:45;;;;;;;14.95;4.95;;;;;;;;;;5083627;28;20051;-72
2022/09/25 04:18:15;;;;;;;13.75;5.10;;;;;;;;;;5076860;28;20059;-75
2022/09/25 04:20:41;;;;;;;12.60;4.80;;;;;;;;;;5068375;28;20056;-76
2022/09/25 04:23:07;;;;;;;15.43;4.80;;;;;;;;;;5068003;28;20511;-76
2022/09/25 04:25:33;;;;;;;12.95;4.40;;;;;;;;;;5074979;28;20147;-75
2022/09/25 04:27:59;;;;;;;13.07;4.40;;;;;;;;;;5081483;28;20119;-76
2022/09/25 04:30:27;;;;;;;14.02;4.72;;;;;;;;;;5075418;28;20124;-76
2022/09/25 04:35:38;;;;;;;11.75;4.50;;;;;;;;;;5078398;28;20058;-75
2022/09/25 04:38:04;;;;;;;11.70;4.75;;;;;;;;;;5073609;28;20064;-76
2022/09/25 04:40:31;;;;;;;12.52;4.32;;;;;;;;;;5068643;28;20053;-75
2022/09/25 04:42:57;;;;;;;;;;;;;;;;;;5067175;28;20484;-76
2022/09/25 04:45:25;;;;;;;13.98;5.20;;;;;;;;;;5051186;28;19968;-76
2022/09/25 04:47:54;;;;;;;15.18;4.80;;;;;;;;;;5082928;28;20050;-76
2022/09/25 04:50:21;;;;;;;18.98;5.15;;;;;;;;;;5068869;28;20385;-75
2022/09/25 04:52:48;;;;;;;14.80;5.13;;;;;;;;;;5068413;28;20108;-72
2022/09/25 04:55:15;;;;;;;12.45;4.45;;;;;;;;;;5070555;28;20055;-75
2022/09/25 04:57:41;;;;;;;13.40;4.53;;;;;;;;;;5071121;28;20516;-76
2022/09/25 05:00:08;;;;;;;16.38;4.30;;;;;;;;;;5084394;28;20040;-75
2022/09/25 05:02:34;;;;;;;15.68;4.55;;;;;;;;;;5088633;28;20055;-75
2022/09/25 05:05:00;;;;;;;14.05;4.57;;;;;;;;;;5085429;28;20192;-75
2022/09/25 05:07:26;;;;;;;15.05;4.72;;;;;;;;;;5081462;28;20043;-76
2022/09/25 05:09:52;;;;;;;11.80;4.60;;;;;;;;;;5084228;28;20055;-76
2022/09/25 05:12:19;;;;;;;13.18;4.68;;;;;;;;;;5085600;28;20922;-75
2022/09/25 05:14:45;;;;;;;11.25;4.25;;;;;;;;;;5068764;28;20508;-75
2022/09/25 05:17:11;;;;;;;11.27;4.38;;;;;;;;;;5068515;28;20156;-75
2022/09/25 05:19:38;;;;;;;12.20;4.35;;;;;;;;;;5069332;28;20049;-75
2022/09/25 05:22:04;;;;;;;12.50;4.38;;;;;;;;;;5085996;28;20051;-75
2022/09/25 05:24:31;;;;;;;16.42;4.85;;;;;;;;;;5075588;28;20126;-75
2022/09/25 05:26:57;;;;;;;15.90;4.75;;;;;;;;;;5068000;28;20146;-75
2022/09/25 05:29:24;;;;;;;11.75;4.65;;;;;;;;;;5084399;28;20449;-76
2022/09/25 05:31:50;;;;;;;16.80;5.03;;;;;;;;;;5080559;28;20048;-75
2022/09/25 05:34:19;;;;;;;14.93;4.55;;;;;;;;;;5078646;28;20111;-77
2022/09/25 05:36:45;;;;;;;14.75;5.28;;;;;;;;;;5068048;28;20056;-75
2022/09/25 05:39:12;;;;;;;12.25;4.43;;;;;;;;;;5070169;28;20075;-76
2022/09/25 05:41:38;;;;;;;10.68;4.82;;;;;;;;;;5083823;28;20453;-75
2022/09/25 05:44:08;;;;;;;14.02;4.75;;;;;;;;;;5070012;28;20062;-75
2022/09/25 05:46:37;;;;;;;13.57;4.60;;;;;;;;;;5071990;28;20063;-75
2022/09/25 05:49:03;;;;;;;12.27;4.20;;;;;;;;;;5071437;28;20120;-76
2022/09/25 05:51:29;;;;;;;14.63;4.75;;;;;;;;;;5071619;28;20056;-75
2022/09/25 05:53:56;;;;;;;12.55;4.50;;;;;;;;;;5080857;28;20040;-72
2022/09/25 05:56:23;;;;;;;13.00;4.25;;;;;;;;;;5077488;28;20044;-75
2022/09/25 05:58:49;;;;;;;13.07;4.13;;;;;;;;;;5073037;28;20432;-76
2022/09/25 06:01:16;;;;;;;13.43;4.28;;;;;;;;;;5080941;28;20055;-76
2022/09/25 06:03:42;;;;;;;12.80;3.97;;;;;;;;;;5067456;28;20123;-75
2022/09/25 06:06:08;;;;;;;;;;;;;;;;;;5080787;28;20072;-76
2022/09/25 06:08:34;;;;;;;11.85;4.25;;;;;;;;;;5078488;28;20343;-76
2022/09/25 06:11:03;;;;;;;12.18;4.72;;;;;;;;;;5086781;28;20044;-76
2022/09/25 06:13:31;;;;;;;15.43;4.40;;;;;;;;;;5091517;28;20134;-75
2022/09/25 06:15:58;;;;;;;13.75;4.85;;;;;;;;;;5078809;28;20180;-71
2022/09/25 06:18:25;;;;;;;14.80;4.28;;;;;;;;;;5078452;28;20491;-75
2022/09/25 06:20:51;;;;;;;11.77;4.32;;;;;;;;;;5080826;28;20265;-76
2022/09/25 06:23:17;;;;;;;12.25;4.07;;;;;;;;;;5085325;28;20176;-76
2022/09/25 06:25:44;;;;;;;12.35;4.50;;;;;;;;;;5079080;28;20094;-75
2022/09/25 06:28:11;;;;;;;10.65;4.97;;;;;;;;;;5076377;28;20374;-75
2022/09/25 06:30:38;;;;;;;12.43;4.90;;;;;;;;;;5073665;28;20055;-75
2022/09/25 06:33:08;;;;;;;10.82;4.72;;;;;;;;;;5081028;28;20048;-75
2022/09/25 06:35:34;;;;;;;10.13;4.03;;;;;;;;;;5071302;28;20044;-76
2022/09/25 06:38:00;;;;;;;;;;;;;;;;;;5070016;28;20438;-72
2022/09/25 06:40:27;;;;;;;14.02;4.95;;;;;;;;;;5082981;28;19992;-76
2022/09/25 06:42:57;;;;;;;14.27;4.78;;;;;;;;;;5081482;28;20040;-72
2022/09/25 06:45:24;;;;;;;14.18;4.50;;;;;;;;;;5089082;28;20054;-76
2022/09/25 06:47:50;;;;;;;13.73;4.85;;;;;;;;;;5079617;28;20047;-74
2022/09/25 06:50:16;;;;;;;12.30;4.93;;;;;;;;;;5077529;28;20120;-75
2022/09/25 06:52:43;;;;;;;12.05;4.32;;;;;;;;;;5071672;28;20047;-75
2022/09/25 06:55:09;;;;;;;;;;;;;;;;;;5079347;28;20120;-75
2022/09/25 06:57:36;;;;;;;16.40;5.03;;;;;;;;;;5088666;28;20362;-74
2022/09/25 07:00:06;;;;;;;14.20;5.03;;;;;;;;;;5077979;28;20051;-71
2022/09/25 07:05:17;;;;;;;12.65;5.10;;;;;;;;;;5076687;28;20090;-71
2022/09/25 07:07:44;;;;;;;14.65;5.07;;;;;;;;;;5071237;28;20094;-74
2022/09/25 07:10:10;;;;;;;13.20;5.30;;;;;;;;;;5074414;28;20052;-74
2022/09/25 07:12:37;;;;;;;10.82;4.70;;;;;;;;;;5085923;28;20154;-74
2022/09/25 07:15:03;;;;;;;17.33;4.75;;;;;;;;;;5066329;28;20356;-75
2022/09/25 07:17:29;;;;;;;;;;;;;;;;;;5087309;28;20037;-75
2022/09/25 07:19:55;;;;;;;13.43;4.75;;;;;;;;;;5081659;28;19984;-76
2022/09/25 07:22:22;;;;;;;15.00;5.10;;;;;;;;;;5083816;28;20056;-74
2022/09/25 07:24:48;;;;;;;12.27;4.50;;;;;;;;;;5085319;28;20039;-75
2022/09/25 07:27:15;;;;;;;13.15;4.50;;;;;;;;;;5079865;28;20083;-75
2022/09/25 07:29:41;;;;;;;14.60;4.25;;;;;;;;;;5066233;28;20164;-76
2022/09/25 07:32:09;;;;;;;15.85;4.43;;;;;;;;;;5079621;28;20040;-72
2022/09/25 07:34:36;;;;;;;16.23;4.18;;;;;;;;;;5067316;28;20044;-76
2022/09/25 07:37:02;;;;;;;14.18;4.05;;;;;;;;;;5083848;28;20055;-75
2022/09/25 07:39:29;;;;;;;19.63;5.18;;;;;;;;;;5083308;28;20048;-77
2022/09/25 07:41:55;;;;;;;17.30;4.40;;;;;;;;;;5072598;28;20156;-77
2022/09/25 07:44:21;;;;;;;14.90;4.72;;;;;;;;;;5068837;28;20048;-75
2022/09/25 07:46:50;;;;;;;20.92;5.45;;;;;;;;;;5080157;28;20464;-77
2022/09/25 07:49:16;;;;;;;12.68;3.83;;;;;;;;;;5052183;28;20380;-81
2022/09/25 07:51:42;;;;;;;14.65;4.57;;;;;;;;;;5081535;28;20052;-77
2022/09/25 07:54:08;;;;;;;14.43;4.22;;;;;;;;;;5080339;28;20423;-77
2022/09/25 07:56:36;;;;;;;12.63;3.25;;;;;;;;;;5086095;28;20517;-79
2022/09/25 07:59:05;;;;;;;10.38;3.28;;;;;;;;;;5082194;28;20369;-76
2022/09/25 08:01:32;;;;;;;9.48;2.85;;;;;;;;;;5080700;28;20052;-76
2022/09/25 08:03:58;;;;;;;10.10;3.13;;;;;;;;;;5083405;28;20390;-74
2022/09/25 08:06:24;;;;;;;9.30;2.78;;;;;;;;;;5083963;28;20047;-76
2022/09/25 08:08:50;;;;;;;10.88;2.70;;;;;;;;;;5049881;28;20090;-75
2022/09/25 08:11:17;;;;;;;12.88;3.17;;;;;;;;;;5083861;28;20044;-72
2022/09/25 08:13:44;;;;;;;12.95;2.65;;;;;;;;;;5070182;28;20103;-78
2022/09/25 08:16:12;;;;;;;8.88;2.38;;;;;;;;;;5081358;28;20044;-75
2022/09/25 08:18:40;;;;;;;8.32;2.30;;;;;;;;;;5078809;28;20123;-76
2022/09/25 08:21:06;;;;;;;12.15;2.63;;;;;;;;;;5079789;28;20093;-76
2022/09/25 08:23:32;;;;;;;8.65;2.30;;;;;;;;;;5074185;28;20036;-76
2022/09/25 08:25:59;;;;;;;9.82;2.10;;;;;;;;;;5067626;28;20501;-82
2022/09/25 08:28:25;;;;;;;;;;;;;;;;;;5076305;28;20056;-78
2022/09/25 08:30:52;;;;;;;8.32;2.10;;;;;;;;;;5080354;28;20037;-87
2022/09/25 08:33:19;;;;;;;9.98;2.35;;;;;;;;;;5089675;28;20056;-79
2022/09/25 08:35:53;;;;;;;10.40;2.80;;;;;;;;;;5075425;28;20110;-80
2022/09/25 08:38:19;;;;;;;13.20;3.60;;;;;;;;;;5077145;28;20108;-79
2022/09/25 08:41:08;;;;;;;16.33;4.43;;;;;;;;;;5066584;28;20404;-72
2022/09/25 08:43:40;;;;;;;11.40;3.25;;;;;;;;;;5080352;28;20064;-68
2022/09/25 08:49:08;;;;;;;19.15;4.47;;;;;;;;;;5073533;28;20440;-66
2022/09/25 08:51:42;;;;;;;13.85;3.60;;;;;;;;;;5067912;28;20048;-67
2022/09/25 08:54:11;;;;;;;13.05;3.60;;;;;;;;;;5107053;28;20046;-66
2022/09/25 08:56:39;;;;;;;13.07;3.45;;;;;;;;;;5088602;28;20051;-66
2022/09/25 08:59:08;;;;;;;9.90;2.90;;;;;;;;;;5076610;28;20048;-66
2022/09/25 09:01:51;;;;;;;13.13;3.45;;;;;;;;;;5067907;28;20372;-65
2022/09/25 09:04:19;;;;;;;11.07;3.13;;;;;;;;;;5075865;28;20040;-66
2022/09/25 09:06:47;;;;;;;12.10;3.90;;;;;;;;;;5083177;28;20043;-66
2022/09/25 09:09:15;;;;;;;11.55;2.85;;;;;;;;;;5083984;28;20151;-66
2022/09/25 09:11:57;;;;;;;12.00;3.25;;;;;;;;;;5073247;28;20051;-66
2022/09/25 09:14:25;;;;;;;14.57;4.22;;;;;;;;;;5080801;28;20096;-64
2022/09/25 09:17:04;;;;;;;14.57;6.90;;;;;;;;;;5079654;28;20433;-65
2022/09/25 09:19:30;;;;;;;15.95;4.85;;;;;;;;;;5082509;28;20044;-66
2022/09/25 09:21:56;;;;;;;10.18;3.30;;;;;;;;;;5078166;28;20056;-66
2022/09/25 09:24:27;;;;;;;17.27;8.57;;;;;;;;;;5083343;28;20108;-64
2022/09/25 09:27:12;;;;;;;23.50;12.68;;;;;;;;;;5055293;28;20044;-68
2022/09/25 09:29:44;;;;;;;25.85;16.70;;;;;;;;;;5082667;28;20134;-68
2022/09/25 09:32:16;;;;;;;14.75;5.72;;;;;;;;;;5081657;28;20143;-67
2022/09/25 09:34:51;;;;;;;15.50;6.10;;;;;;;;;;5055031;28;20051;-68
2022/09/25 09:37:23;;;;;;;19.25;8.43;;;;;;;;;;5085608;28;20120;-65
2022/09/25 09:39:52;;;;;;;20.13;9.18;;;;;;;;;;5075463;28;20043;-68
2022/09/25 09:42:31;;;;;;;16.52;7.95;;;;;;;;;;5079008;28;20072;-69
2022/09/25 09:45:08;;;;;;;20.42;7.20;;;;;;;;;;5085999;28;20080;-69
2022/09/25 09:47:50;;;;;;;83.53;75.47;;;;;;;;;;5079312;28;20400;-70
2022/09/25 09:50:19;;;;;;;22.90;7.25;;;;;;;;;;5077478;28;20111;-69
2022/09/25 09:52:47;;;;;;;18.92;8.35;;;;;;;;;;5083261;28;20072;-68
2022/09/25 09:55:19;;;;;;;14.65;6.53;;;;;;;;;;5071415;28;20350;-68
2022/09/25 09:57:51;;;;;;;12.50;3.95;;;;;;;;;;5069842;28;20040;-69
2022/09/25 10:00:18;;;;;;;11.70;4.57;;;;;;;;;;5073526;28;20341;-68
2022/09/25 10:03:03;;;;;;;19.27;5.60;;;;;;;;;;5060620;28;20076;-69
2022/09/25 10:05:36;;;;;;;15.57;4.85;;;;;;;;;;5077191;28;20101;-66
2022/09/25 10:08:02;;;;;;;14.88;4.20;;;;;;;;;;5076081;28;20048;-70
2022/09/25 10:10:34;;;;;;;15.63;3.97;;;;;;;;;;5071083;28;20064;-66
2022/09/25 10:13:05;;;;;;;15.30;4.60;;;;;;;;;;5073324;28;20404;-70
2022/09/25 10:15:31;;;;;;;16.73;5.45;;;;;;;;;;5053511;28;20044;-70
2022/09/25 10:17:59;;;;;;;14.18;3.40;;;;;;;;;;5070723;28;20169;-74
2022/09/25 10:20:36;;;;;;;11.45;3.45;;;;;;;;;;5070418;28;20105;-73
2022/09/25 10:23:04;;;;;;;15.20;4.30;;;;;;;;;;5070822;28;20067;-68
2022/09/25 10:25:37;;;;;;;16.75;4.95;;;;;;;;;;5077807;28;20087;-67
2022/09/25 10:28:25;;;;;;;22.88;6.68;;;;;;;;;;5071060;28;20060;-73
2022/09/25 10:30:52;;;;;;;13.30;4.75;;;;;;;;;;5069951;28;20044;-73
2022/09/25 10:33:22;;;;;;;12.00;3.50;;;;;;;;;;5070813;28;20127;-73
2022/09/25 10:35:50;;;;;;;10.90;3.42;;;;;;;;;;5086193;28;20142;-72
2022/09/25 10:38:24;;;;;;;13.48;2.78;;;;;;;;;;5066449;28;20096;-73
2022/09/25 10:41:01;;;;;;;14.18;4.80;;;;;;;;;;5069494;28;20054;-72
2022/09/25 10:43:28;;;;;;;9.73;3.05;;;;;;;;;;5051863;28;20122;-72
2022/09/25 10:46:08;;;;;;;10.70;2.53;;;;;;;;;;5083108;28;20044;-73
2022/09/25 10:51:20;;;;;;;12.57;3.40;;;;;;;;;;5069844;28;20129;-74
2022/09/25 10:54:06;;;;;;;6.85;2.58;;;;;;;;;;5068588;28;20054;-76
2022/09/25 10:56:37;;;;;;;9.90;2.45;;;;;;;;;;5068291;28;20052;-75
2022/09/25 10:59:12;;;;;;;10.52;2.70;;;;;;;;;;5067895;28;20126;-74
2022/09/25 11:01:39;;;;;;;8.43;2.00;;;;;;;;;;5069780;28;20150;-73
2022/09/25 11:04:16;;;;;;;4.18;1.70;;;;;;;;;;5069149;28;20045;-73
2022/09/25 11:06:56;;;;;;;6.72;1.70;;;;;;;;;;5083123;28;20044;-73
2022/09/25 11:09:23;;;;;;;11.23;6.68;;;;;;;;;;5089902;28;20100;-72
2022/09/25 11:11:52;;;;;;;7.60;1.98;;;;;;;;;;5068928;28;20071;-74
2022/09/25 11:14:31;;;;;;;4.82;1.90;;;;;;;;;;5084850;28;20094;-73
2022/09/25 11:16:57;;;;;;;5.63;1.80;;;;;;;;;;5072200;28;20287;-75
2022/09/25 11:19:28;;;;;;;9.05;3.08;;;;;;;;;;5051690;28;20467;-73
2022/09/25 11:22:06;;;;;;;9.07;3.20;;;;;;;;;;5069279;28;20106;-75
2022/09/25 11:24:50;;;;;;;8.98;2.50;;;;;;;;;;5081371;28;20075;-76
2022/09/25 11:27:20;;;;;;;8.27;2.30;;;;;;;;;;5072979;28;20064;-76
2022/09/25 11:30:06;;;;;;;7.00;1.90;;;;;;;;;;5068700;28;20083;-76
2022/09/25 11:32:41;;;;;;;8.73;2.28;;;;;;;;;;5069085;28;20148;-77
2022/09/25 11:35:25;;;;;;;11.02;3.20;;;;;;;;;;5081274;28;20058;-77
2022/09/25 11:37:56;;;;;;;6.57;2.15;;;;;;;;;;5085805;28;20506;-78
2022/09/25 11:43:09;;;;;;;7.35;1.77;;;;;;;;;;5088640;28;20120;-76
2022/09/25 11:45:37;;;;;;;9.98;2.08;;;;;;;;;;5078463;28;20103;-78
2022/09/25 11:48:12;;;;;;;6.30;1.83;;;;;;;;;;5077025;28;20071;-76
2022/09/25 11:50:47;;;;;;;7.13;1.80;;;;;;;;;;5068459;28;20131;-75
2022/09/25 11:53:22;;;;;;;8.70;2.33;;;;;;;;;;5068784;28;20131;-80
2022/09/25 11:56:09;;;;;;;5.65;1.80;;;;;;;;;;5070048;28;20052;-80
2022/09/25 11:58:45;;;;;;;7.00;2.38;;;;;;;;;;5086732;28;20345;-80
2022/09/25 12:01:16;;;;;;;7.60;2.30;;;;;;;;;;5077848;28;20110;-83
2022/09/25 12:03:55;;;;;;;4.65;1.70;;;;;;;;;;5068292;28;20103;-75
2022/09/25 12:06:40;;;;;;;8.73;2.00;;;;;;;;;;5068420;28;20074;-69
2022/09/25 12:09:24;;;;;;;11.45;2.20;;;;;;;;;;5067742;28;20057;-72
2022/09/25 12:12:12;;;;;;;8.65;2.10;;;;;;;;;;5069830;28;20124;-82
2022/09/25 12:14:44;;;;;;;11.82;2.40;;;;;;;;;;5068162;28;20040;-86
2022/09/25 12:17:20;;;;;;;7.93;2.00;;;;;;;;;;5068057;28;20380;-69
2022/09/25 12:19:51;;;;;;;9.43;2.13;;;;;;;;;;5067795;28;20045;-75
2022/09/25 12:22:32;;;;;;;7.75;2.00;;;;;;;;;;5067753;28;20048;-80
2022/09/25 12:25:19;;;;;;;10.98;2.40;;;;;;;;;;5067413;28;20538;-81
2022/09/25 12:27:51;;;;;;;10.65;2.30;;;;;;;;;;5067916;28;20365;-72
2022/09/25 12:30:18;;;;;;;7.07;1.83;;;;;;;;;;5067936;28;20064;-73
2022/09/25 12:33:04;;;;;;;9.27;2.47;;;;;;;;;;5074093;28;20347;-79
2022/09/25 12:35:48;;;;;;;7.63;1.83;;;;;;;;;;5087556;28;20051;-81
2022/09/25 12:38:27;;;;;;;9.10;1.85;;;;;;;;;;5087691;28;20241;-78
2022/09/25 12:41:05;;;;;;;5.30;1.80;;;;;;;;;;5087482;28;20052;-78
2022/09/25 12:43:40;;;;;;;8.70;2.17;;;;;;;;;;5057414;28;20045;-79
2022/09/25 12:46:16;;;;;;;7.95;2.30;;;;;;;;;;5067193;28;20143;-80
2022/09/25 12:48:54;;;;;;;9.65;2.15;;;;;;;;;;5067656;28;20161;-79
2022/09/25 12:51:28;;;;;;;9.75;2.38;;;;;;;;;;5068270;28;20086;-78
2022/09/25 12:53:57;;;;;;;8.45;2.13;;;;;;;;;;5074042;28;20172;-79
2022/09/25 12:56:33;;;;;;;7.57;1.90;;;;;;;;;;5055910;28;20056;-75
2022/09/25 12:59:02;;;;;;;11.38;2.33;;;;;;;;;;5073537;28;20067;-80
2022/09/25 13:01:35;;;;;;;12.73;2.08;;;;;;;;;;5074317;28;20076;-76
2022/09/25 13:04:09;;;;;;;9.10;2.00;;;;;;;;;;5074027;28;20381;-78
2022/09/25 13:06:35;;;;;;;8.38;2.08;;;;;;;;;;5073838;28;20049;-78
2022/09/25 13:09:17;;;;;;;11.00;2.40;;;;;;;;;;5073685;28;20045;-80
2022/09/25 13:11:57;;;;;;;8.70;2.00;;;;;;;;;;5056155;28;20096;-81
2022/09/25 13:14:30;;;;;;;8.63;2.42;;;;;;;;;;5075232;28;20115;-78
2022/09/25 13:16:56;;;;;;;8.90;2.45;;;;;;;;;;5073692;28;20088;-79
2022/09/25 13:19:40;;;;;;;9.32;2.00;;;;;;;;;;5073933;28;20080;-80
2022/09/25 13:22:11;;;;;;;10.35;2.00;;;;;;;;;;5072783;28;20044;-73
2022/09/25 13:24:42;;;;;;;8.38;1.95;;;;;;;;;;5076443;28;20120;-81
2022/09/25 13:27:12;;;;;;;8.07;1.80;;;;;;;;;;5072769;28;20044;-84
2022/09/25 13:29:39;;;;;;;9.80;2.10;;;;;;;;;;5055848;28;20045;-91
2022/09/25 13:32:05;;;;;;;10.52;2.42;;;;;;;;;;5072837;28;20052;-87
2022/09/25 13:34:34;;;;;;;9.02;2.00;;;;;;;;;;5073639;28;20116;-83
2022/09/25 13:37:03;;;;;;;6.85;1.85;;;;;;;;;;5088384;28;20115;-82
2022/09/25 13:42:37;;;;;;;9.57;2.30;;;;;;;;;;5090322;28;20468;-83
2022/09/25 13:45:06;;;;;;;8.23;1.95;;;;;;;;;;5093925;28;20055;-81
2022/09/25 13:47:52;;;;;;;10.60;1.95;;;;;;;;;;5089113;28;20139;-82
2022/09/25 13:50:23;;;;;;;9.05;2.10;;;;;;;;;;5093553;28;20058;-83
2022/09/25 13:53:16;;;;;;;11.27;2.10;;;;;;;;;;5089356;28;20048;-82
2022/09/25 13:55:54;;;;;;;8.38;2.00;;;;;;;;;;5041142;28;20071;-79
2022/09/25 13:58:27;;;;;;;9.02;1.90;;;;;;;;;;5077027;28;20195;-83
2022/09/25 14:00:57;;;;;;;11.15;2.10;;;;;;;;;;5078586;28;20052;-84
2022/09/25 14:03:40;;;;;;;7.13;1.90;;;;;;;;;;5092369;28;20432;-86
2022/09/25 14:06:10;;;;;;;10.07;1.85;;;;;;;;;;5090417;28;20139;-85
2022/09/25 14:08:38;;;;;;;9.80;2.00;;;;;;;;;;5076246;28;20040;-82
2022/09/25 14:11:07;;;;;;;10.95;2.10;;;;;;;;;;5069993;28;20055;-84
2022/09/25 14:13:34;;;;;;;12.32;2.00;;;;;;;;;;5070699;28;20505;-78
2022/09/25 14:16:03;;;;;;;10.32;2.08;;;;;;;;;;5069958;28;20131;-77
2022/09/25 14:18:45;;;;;;;10.45;2.05;;;;;;;;;;5073941;28;20066;-79
2022/09/25 14:21:14;;;;;;;9.10;1.77;;;;;;;;;;5087282;28;20404;-88
2022/09/25 14:23:48;;;;;;;7.22;1.80;;;;;;;;;;5070164;28;20044;-74
2022/09/25 14:26:20;;;;;;;9.93;2.10;;;;;;;;;;5069858;28;20059;-81
2022/09/25 14:28:51;;;;;;;8.60;1.90;;;;;;;;;;5073407;28;20055;-83
2022/09/25 14:31:37;;;;;;;7.13;1.80;;;;;;;;;;5089830;28;20421;-80
2022/09/25 14:34:27;;;;;;;8.82;1.90;;;;;;;;;;5068427;28;20062;-73
2022/09/25 14:37:00;;;;;;;7.97;1.90;;;;;;;;;;5070626;28;20148;-85
2022/09/25 14:39:38;;;;;;;5.85;1.90;;;;;;;;;;5072881;28;20492;-77
2022/09/25 14:42:16;;;;;;;8.13;1.75;;;;;;;;;;5070428;28;20140;-73
2022/09/25 14:44:58;;;;;;;10.82;2.10;;;;;;;;;;5051499;28;20041;-71
2022/09/25 14:47:29;;;;;;;8.98;1.90;;;;;;;;;;5069757;28;20064;-74
2022/09/25 14:49:55;;;;;;;7.45;1.90;;;;;;;;;;5074980;28;20047;-81
2022/09/25 14:52:22;;;;;;;;;;;;;;;;;;5078675;28;20048;-71
2022/09/25 14:54:50;;;;;;;;;;;;;;;;;;5062108;28;19997;-85
2022/09/25 14:57:18;;;;;;;9.73;2.65;;;;;;;;;;5068095;28;19932;-84
2022/09/25 14:59:48;;;;;;;9.25;2.08;;;;;;;;;;5073580;28;20506;-83
2022/09/25 15:02:18;;;;;;;11.10;2.53;;;;;;;;;;5058690;28;20036;-74
2022/09/25 15:04:44;;;;;;;9.43;2.00;;;;;;;;;;5088910;28;20166;-82
2022/09/25 15:07:19;;;;;;;7.85;2.03;;;;;;;;;;5070131;28;20407;-81
2022/09/25 15:09:49;;;;;;;10.80;2.03;;;;;;;;;;5085221;28;20109;-81
2022/09/25 15:12:16;;;;;;;7.72;1.92;;;;;;;;;;5080819;28;20514;-87
2022/09/25 15:15:01;;;;;;;6.45;1.92;;;;;;;;;;5084572;28;20044;-72
2022/09/25 15:17:28;;;;;;;6.10;1.63;;;;;;;;;;5071420;28;20047;-83